createdAt,value
2022-10-13T00:00:45.739Z,101793.88
2022-10-13T00:03:12.481Z,101794.78
2022-10-13T00:05:43.704Z,101795.75
2022-10-13T00:08:10.919Z,101797.47
2022-10-13T00:10:39.117Z,101794.88
2022-10-13T00:13:07.753Z,101784.50
2022-10-13T00:15:39.118Z,101788.84
2022-10-13T00:18:06.241Z,101788.84
2022-10-13T00:20:33.322Z,101773.31
2022-10-13T00:22:59.777Z,101780.25
2022-10-13T00:25:26.642Z,101779.44
2022-10-13T00:27:53.348Z,101778.53
2022-10-13T00:30:20.152Z,101780.31
2022-10-13T00:32:49.016Z,101778.63
2022-10-13T00:35:15.599Z,101773.41
2022-10-13T00:37:42.153Z,101773.34
2022-10-13T00:40:09.015Z,101769.06
2022-10-13T00:42:35.542Z,101768.97
2022-10-13T00:45:12.767Z,101774.16
2022-10-13T00:47:44.789Z,101768.09
2022-10-13T00:50:16.855Z,101771.53
2022-10-13T00:52:43.739Z,101774.03
2022-10-13T00:55:13.685Z,101766.19
2022-10-13T00:57:44.261Z,101760.09
2022-10-13T01:00:11.568Z,101761.81
2022-10-13T01:02:38.412Z,101753.19
2022-10-13T01:05:06.729Z,101760.09
2022-10-13T01:07:34.793Z,101755.78
2022-10-13T01:10:02.719Z,101743.69
2022-10-13T01:12:50.192Z,101752.38
2022-10-13T01:15:34.961Z,101747.13
2022-10-13T01:18:37.223Z,101747.06
2022-10-13T01:21:22.950Z,101741.06
2022-10-13T01:23:55.618Z,101736.75
2022-10-13T01:26:37.978Z,101746.28
2022-10-13T01:29:45.082Z,101754.03
2022-10-13T01:32:27.687Z,101738.47
2022-10-13T01:35:13.329Z,101743.56
2022-10-13T01:38:04.859Z,101736.63
2022-10-13T01:40:42.795Z,101743.50
2022-10-13T01:43:15.963Z,101740.03
2022-10-13T01:45:58.766Z,101738.22
2022-10-13T01:48:26.696Z,101731.34
2022-10-13T01:50:55.611Z,101731.34
2022-10-13T01:53:23.858Z,101722.66
2022-10-13T01:55:56.791Z,101725.22
2022-10-13T01:58:26.150Z,101723.47
2022-10-13T02:01:25.848Z,101723.38
2022-10-13T02:04:05.648Z,101720.72
2022-10-13T02:07:03.891Z,101711.97
2022-10-13T02:09:59.546Z,101711.97
2022-10-13T02:12:42.546Z,101712.84
2022-10-13T02:15:15.885Z,101708.50
2022-10-13T02:17:42.528Z,101713.59
2022-10-13T02:20:10.785Z,101704.84
2022-10-13T02:22:43.333Z,101711.75
2022-10-13T02:25:09.866Z,101709.16
2022-10-13T02:27:36.404Z,101712.53
2022-10-13T02:30:03.735Z,101705.59
2022-10-13T02:32:30.263Z,101708.19
2022-10-13T02:34:57.176Z,101708.09
2022-10-13T02:37:25.691Z,101708.06
2022-10-13T02:39:52.464Z,101707.19
2022-10-13T02:42:19.748Z,101714.94
2022-10-13T02:44:46.474Z,101703.66
2022-10-13T02:47:13.383Z,101707.13
2022-10-13T02:49:39.898Z,101702.75
2022-10-13T02:52:07.272Z,101701.84
2022-10-13T02:54:33.709Z,101700.09
2022-10-13T02:57:00.338Z,101690.56
2022-10-13T02:59:26.786Z,101695.75
2022-10-13T03:01:53.232Z,101694.06
2022-10-13T03:04:19.911Z,101691.41
2022-10-13T03:06:46.377Z,101692.31
2022-10-13T03:09:12.879Z,101695.69
2022-10-13T03:11:39.320Z,101693.91
2022-10-13T03:14:05.807Z,101689.56
2022-10-13T03:16:32.414Z,101694.75
2022-10-13T03:18:58.922Z,101686.06
2022-10-13T03:21:25.941Z,101685.22
2022-10-13T03:23:52.453Z,101687.81
2022-10-13T03:26:19.100Z,101687.81
2022-10-13T03:28:52.241Z,101673.13
2022-10-13T03:31:19.133Z,101669.63
2022-10-13T03:33:46.192Z,101667.88
2022-10-13T03:36:13.652Z,101668.75
2022-10-13T03:38:40.379Z,101656.69
2022-10-13T03:41:12.523Z,101660.16
2022-10-13T03:43:39.510Z,101661.03
2022-10-13T03:46:06.781Z,101655.84
2022-10-13T03:48:34.797Z,101648.97
2022-10-13T03:51:08.533Z,101656.69
2022-10-13T03:53:35.850Z,101645.41
2022-10-13T03:56:03.188Z,101655.75
2022-10-13T03:58:29.978Z,101647.09
2022-10-13T04:00:57.604Z,101654.00
2022-10-13T04:03:24.596Z,101653.03
2022-10-13T04:05:51.158Z,101641.75
2022-10-13T04:08:17.752Z,101650.41
2022-10-13T04:10:44.215Z,101650.41
2022-10-13T04:13:10.684Z,101643.47
2022-10-13T04:15:38.485Z,101642.56
2022-10-13T04:18:06.692Z,101647.72
2022-10-13T04:20:38.296Z,101650.31
2022-10-13T04:23:05.718Z,101647.72
2022-10-13T04:25:35.776Z,101643.44
2022-10-13T04:28:03.833Z,101641.63
2022-10-13T04:30:30.341Z,101643.25
2022-10-13T04:32:56.998Z,101631.16
2022-10-13T04:35:23.438Z,101629.44
2022-10-13T04:37:49.901Z,101632.84
2022-10-13T04:40:16.607Z,101628.50
2022-10-13T04:42:43.059Z,101619.06
2022-10-13T04:45:09.974Z,101624.22
2022-10-13T04:47:39.922Z,101624.25
2022-10-13T04:50:06.692Z,101626.84
2022-10-13T04:52:34.584Z,101625.16
2022-10-13T04:55:01.109Z,101627.75
2022-10-13T04:57:27.657Z,101617.38
2022-10-13T04:59:54.253Z,101614.72
2022-10-13T05:02:21.179Z,101615.56
2022-10-13T05:04:48.114Z,101624.25
2022-10-13T05:07:18.641Z,101619.00
2022-10-13T05:09:45.817Z,101619.81
2022-10-13T05:12:12.386Z,101611.19
2022-10-13T05:14:38.948Z,101619.00
2022-10-13T05:17:05.493Z,101604.28
2022-10-13T05:19:31.974Z,101606.03
2022-10-13T05:21:58.626Z,101610.38
2022-10-13T05:24:36.394Z,101610.38
2022-10-13T05:27:08.896Z,101606.88
2022-10-13T05:29:35.799Z,101601.78
2022-10-13T05:32:02.835Z,101605.28
2022-10-13T05:34:29.424Z,101603.56
2022-10-13T05:36:55.917Z,101612.28
2022-10-13T05:39:22.616Z,101605.34
2022-10-13T05:41:49.308Z,101601.06
2022-10-13T05:44:18.121Z,101605.41
2022-10-13T05:46:44.627Z,101599.41
2022-10-13T05:49:11.236Z,101594.22
2022-10-13T05:51:46.103Z,101590.66
2022-10-13T05:54:17.600Z,101592.50
2022-10-13T05:56:51.270Z,101586.47
2022-10-13T05:59:24.626Z,101580.44
2022-10-13T06:01:53.594Z,101583.91
2022-10-13T06:04:27.370Z,101586.50
2022-10-13T06:06:53.942Z,101585.63
2022-10-13T06:09:20.847Z,101583.81
2022-10-13T06:11:47.502Z,101561.41
2022-10-13T06:14:14.155Z,101555.22
2022-10-13T06:16:41.518Z,101548.22
2022-10-13T06:19:08.088Z,101543.88
2022-10-13T06:21:35.758Z,101551.59
2022-10-13T06:24:02.730Z,101539.41
2022-10-13T06:26:29.241Z,101558.44
2022-10-13T06:28:59.565Z,101564.44
2022-10-13T06:31:27.171Z,101563.59
2022-10-13T06:33:54.165Z,101561.72
2022-10-13T06:36:20.673Z,101566.00
2022-10-13T06:38:47.274Z,101566.00
2022-10-13T06:41:14.416Z,101568.59
2022-10-13T06:43:41.258Z,101580.69
2022-10-13T06:46:08.267Z,101587.47
2022-10-13T06:48:35.274Z,101581.31
2022-10-13T06:51:07.318Z,101578.66
2022-10-13T06:53:33.985Z,101592.50
2022-10-13T06:56:02.131Z,101588.97
2022-10-13T06:58:29.145Z,101585.41
2022-10-13T07:00:55.918Z,101582.72
2022-10-13T07:03:24.067Z,101573.19
2022-10-13T07:05:50.585Z,101574.84
2022-10-13T07:08:17.103Z,101578.25
2022-10-13T07:10:43.766Z,101587.69
2022-10-13T07:13:10.350Z,101580.66
2022-10-13T07:15:41.021Z,101583.13
2022-10-13T07:18:07.543Z,101579.47
2022-10-13T07:20:34.522Z,101584.59
2022-10-13T07:23:01.628Z,101582.72
2022-10-13T07:25:28.406Z,101583.44
2022-10-13T07:27:54.913Z,101587.59
2022-10-13T07:30:21.702Z,101584.84
2022-10-13T07:32:48.877Z,101585.59
2022-10-13T07:35:15.405Z,101589.72
2022-10-13T07:37:42.082Z,101567.91
2022-10-13T07:40:09.170Z,101574.50
2022-10-13T07:42:35.884Z,101577.69
2022-10-13T07:45:02.453Z,101582.50
2022-10-13T07:47:29.565Z,101575.00
2022-10-13T07:49:56.084Z,101571.97
2022-10-13T07:52:23.374Z,101577.75
2022-10-13T07:54:50.871Z,101572.31
2022-10-13T07:57:17.549Z,101572.94
2022-10-13T07:59:44.253Z,101571.69
2022-10-13T08:02:10.829Z,101577.38
2022-10-13T08:04:37.959Z,101570.19
2022-10-13T08:07:06.235Z,101575.94
2022-10-13T08:09:33.207Z,101573.28
2022-10-13T08:12:00.977Z,101568.81
2022-10-13T08:14:29.327Z,101582.53
2022-10-13T08:16:56.858Z,101577.34
2022-10-13T08:19:23.488Z,101575.72
2022-10-13T08:21:58.059Z,101580.88
2022-10-13T08:24:25.181Z,101575.72
2022-10-13T08:26:51.734Z,101572.13
2022-10-13T08:29:22.983Z,101568.59
2022-10-13T08:31:54.167Z,101578.78
2022-10-13T08:34:22.162Z,101574.22
2022-10-13T08:36:52.663Z,101570.59
2022-10-13T08:39:19.197Z,101579.13
2022-10-13T08:41:45.906Z,101577.34
2022-10-13T08:47:42.084Z,101588.00
2022-10-13T08:50:18.250Z,101577.44
2022-10-13T08:52:58.371Z,101570.22
2022-10-13T08:55:44.453Z,101566.41
2022-10-13T08:58:27.327Z,101563.28
2022-10-13T09:01:01.471Z,101558.56
2022-10-13T09:03:30.304Z,101554.66
2022-10-13T09:06:09.683Z,101552.66
2022-10-13T09:08:56.845Z,101555.09
2022-10-13T09:11:26.980Z,101545.22
2022-10-13T09:14:04.486Z,101550.44
2022-10-13T09:16:39.103Z,101546.66
2022-10-13T09:19:28.219Z,101536.78
2022-10-13T09:21:57.577Z,101539.06
2022-10-13T09:24:26.899Z,101536.03
2022-10-13T09:27:12.296Z,101531.47
2022-10-13T09:29:39.789Z,101531.63
2022-10-13T09:32:22.114Z,101534.38
2022-10-13T09:34:49.705Z,101536.56
2022-10-13T09:37:21.055Z,101534.94
2022-10-13T09:40:02.375Z,101539.81
2022-10-13T09:42:31.850Z,101536.56
2022-10-13T09:45:13.521Z,101534.38
2022-10-13T09:47:41.237Z,101525.78
2022-10-13T09:50:18.350Z,101526.75
2022-10-13T09:52:46.470Z,101530.28
2022-10-13T09:55:32.381Z,101523.28
2022-10-13T09:58:19.812Z,101524.28
2022-10-13T10:00:49.017Z,101520.84
2022-10-13T10:03:34.512Z,101523.22
2022-10-13T10:06:05.661Z,101518.91
2022-10-13T10:09:02.750Z,101510.00
2022-10-13T10:11:41.660Z,101506.81
2022-10-13T10:14:27.518Z,101513.59
2022-10-13T10:17:04.526Z,101511.56
2022-10-13T10:19:49.363Z,101503.56
2022-10-13T10:22:21.856Z,101503.25
2022-10-13T10:25:22.926Z,101504.44
2022-10-13T10:28:18.934Z,101496.13
2022-10-13T10:31:02.229Z,101498.84
2022-10-13T10:33:51.434Z,101494.00
2022-10-13T10:36:38.699Z,101500.44
2022-10-13T10:39:20.567Z,101493.75
2022-10-13T10:42:21.340Z,101494.09
2022-10-13T10:44:51.290Z,101484.09
2022-10-13T10:47:28.775Z,101497.38
2022-10-13T10:50:01.895Z,101489.84
2022-10-13T10:52:48.502Z,101495.59
2022-10-13T10:55:32.425Z,101485.25
2022-10-13T10:58:36.398Z,101477.56
2022-10-13T11:01:15.287Z,101475.72
2022-10-13T11:03:48.381Z,101472.56
2022-10-13T11:06:17.648Z,101472.34
2022-10-13T11:08:47.139Z,101464.66
2022-10-13T11:11:26.579Z,101465.56
2022-10-13T11:14:05.622Z,101463.25
2022-10-13T11:16:38.197Z,101457.09
2022-10-13T11:19:28.800Z,101462.75
2022-10-13T11:21:55.235Z,101460.59
2022-10-13T11:24:33.995Z,101461.00
2022-10-13T11:27:15.973Z,101462.69
2022-10-13T11:29:57.893Z,101466.22
2022-10-13T11:32:30.198Z,101457.63
2022-10-13T11:35:03.228Z,101455.22
2022-10-13T11:38:00.615Z,101457.25
2022-10-13T11:40:37.430Z,101458.84
2022-10-13T11:43:18.164Z,101456.06
2022-10-13T11:45:54.357Z,101453.91
2022-10-13T11:48:36.054Z,101449.66
2022-10-13T11:51:26.385Z,101456.84
2022-10-13T11:53:59.720Z,101458.94
2022-10-13T11:56:57.468Z,101458.41
2022-10-13T11:59:23.921Z,101463.03
2022-10-13T12:01:54.782Z,101458.09
2022-10-13T12:04:24.995Z,101459.22
2022-10-13T12:07:03.767Z,101461.44
2022-10-13T12:09:32.138Z,101455.59
2022-10-13T12:12:02.482Z,101461.06
2022-10-13T12:17:27.788Z,101456.59
2022-10-13T12:19:56.644Z,101453.53
2022-10-13T12:22:24.036Z,101458.81
2022-10-13T12:24:59.273Z,101454.88
2022-10-13T12:27:27.577Z,101451.53
2022-10-13T12:29:54.971Z,101438.47
2022-10-13T12:32:27.077Z,101437.75
2022-10-13T12:34:54.038Z,101437.63
2022-10-13T12:37:29.529Z,101442.06
2022-10-13T12:39:57.614Z,101433.28
2022-10-13T12:42:36.394Z,101436.44
2022-10-13T12:45:04.275Z,101431.66
2022-10-13T12:47:47.458Z,101419.19
2022-10-13T12:50:29.526Z,101424.91
2022-10-13T12:52:56.946Z,101421.81
2022-10-13T12:55:23.954Z,101417.97
2022-10-13T12:57:51.686Z,101422.44
2022-10-13T13:00:30.700Z,101408.72
2022-10-13T13:03:03.423Z,101416.81
2022-10-13T13:05:45.752Z,101426.63
2022-10-13T13:08:27.759Z,101412.97
2022-10-13T13:10:55.597Z,101417.66
2022-10-13T13:13:23.728Z,101413.41
2022-10-13T13:15:51.039Z,101416.09
2022-10-13T13:18:27.022Z,101417.13
2022-10-13T13:20:54.544Z,101411.34
2022-10-13T13:23:23.254Z,101412.09
2022-10-13T13:26:06.352Z,101409.50
2022-10-13T13:28:33.082Z,101406.03
2022-10-13T13:30:59.655Z,101402.56
2022-10-13T13:33:26.544Z,101400.72
2022-10-13T13:35:53.902Z,101399.81
2022-10-13T13:38:20.648Z,101404.44
2022-10-13T13:40:47.231Z,101394.06
2022-10-13T13:43:13.719Z,101405.75
2022-10-13T13:45:40.594Z,101400.91
2022-10-13T13:48:07.317Z,101403.59
2022-10-13T13:50:37.782Z,101402.03
2022-10-13T13:53:05.252Z,101401.44
2022-10-13T13:55:32.178Z,101400.81
2022-10-13T13:58:00.949Z,101401.81
2022-10-13T14:00:27.852Z,101394.19
2022-10-13T14:02:55.825Z,101403.06
2022-10-13T14:05:22.473Z,101396.31
2022-10-13T14:07:49.192Z,101395.59
2022-10-13T14:10:15.779Z,101398.31
2022-10-13T14:12:42.289Z,101390.66
2022-10-13T14:15:09.602Z,101400.59
2022-10-13T14:17:36.188Z,101397.19
2022-10-13T14:20:02.794Z,101388.50
2022-10-13T14:22:29.629Z,101391.94
2022-10-13T14:24:56.291Z,101390.19
2022-10-13T14:27:23.418Z,101386.66
2022-10-13T14:29:49.885Z,101383.91
2022-10-13T14:33:34.064Z,101380.94
2022-10-13T14:36:06.371Z,101379.81
2022-10-13T14:38:34.223Z,101384.75
2022-10-13T14:41:02.414Z,101383.72
2022-10-13T14:43:29.441Z,101376.66
2022-10-13T14:45:56.059Z,101380.28
2022-10-13T14:48:24.821Z,101374.41
2022-10-13T14:50:51.466Z,101379.94
2022-10-13T14:53:18.259Z,101372.47
2022-10-13T14:55:45.357Z,101371.97
2022-10-13T14:58:12.568Z,101372.06
2022-10-13T15:00:39.063Z,101367.88
2022-10-13T15:03:05.602Z,101369.66
2022-10-13T15:05:32.121Z,101364.44
2022-10-13T15:07:58.679Z,101356.50
2022-10-13T15:10:25.326Z,101358.22
2022-10-13T15:12:51.817Z,101348.06
2022-10-13T15:15:18.802Z,101355.84
2022-10-13T15:17:45.272Z,101347.34
2022-10-13T15:20:12.026Z,101348.28
2022-10-13T15:22:38.585Z,101345.66
2022-10-13T15:25:09.849Z,101342.13
2022-10-13T15:27:41.804Z,101346.38
2022-10-13T15:30:09.325Z,101341.09
2022-10-13T15:32:35.835Z,101334.94
2022-10-13T15:35:02.639Z,101332.16
2022-10-13T15:37:29.510Z,101339.25
2022-10-13T15:39:57.574Z,101332.41
2022-10-13T15:42:24.352Z,101334.22
2022-10-13T15:45:08.636Z,101336.91
2022-10-13T15:47:36.498Z,101330.91
2022-10-13T15:50:03.888Z,101331.13
2022-10-13T15:52:34.747Z,101330.28
2022-10-13T15:55:01.748Z,101319.22
2022-10-13T15:57:28.278Z,101320.06
2022-10-13T15:59:54.815Z,101326.16
2022-10-13T16:02:23.463Z,101325.50
2022-10-13T16:04:51.187Z,101324.75
2022-10-13T16:07:20.474Z,101318.78
2022-10-13T16:09:47.054Z,101321.50
2022-10-13T16:12:13.602Z,101321.63
2022-10-13T16:14:40.103Z,101326.06
2022-10-13T16:17:06.627Z,101324.44
2022-10-13T16:19:33.114Z,101326.28
2022-10-13T16:21:59.656Z,101323.81
2022-10-13T16:24:26.218Z,101319.50
2022-10-13T16:26:52.980Z,101325.72
2022-10-13T16:29:19.466Z,101329.19
2022-10-13T16:31:45.977Z,101335.31
2022-10-13T16:34:12.460Z,101338.91
2022-10-13T16:36:39.009Z,101339.81
2022-10-13T16:39:05.582Z,101336.41
2022-10-13T16:41:32.094Z,101339.03
2022-10-13T16:43:58.819Z,101342.56
2022-10-13T16:46:25.450Z,101350.44
2022-10-13T16:48:51.980Z,101339.03
2022-10-13T16:51:24.947Z,101342.56
2022-10-13T16:53:53.831Z,101336.53
2022-10-13T16:56:22.950Z,101342.66
2022-10-13T16:58:57.124Z,101345.34
2022-10-13T17:01:24.419Z,101345.34
2022-10-13T17:03:51.887Z,101342.09
2022-10-13T17:06:21.372Z,101340.56
2022-10-13T17:08:48.271Z,101348.44
2022-10-13T17:11:24.047Z,101347.59
2022-10-13T17:13:51.127Z,101352.03
2022-10-13T17:16:18.664Z,101342.53
2022-10-13T17:18:45.551Z,101347.81
2022-10-13T17:21:15.286Z,101349.56
2022-10-13T17:23:47.382Z,101350.41
2022-10-13T17:26:16.646Z,101350.47
2022-10-13T17:28:43.767Z,101351.38
2022-10-13T17:31:19.403Z,101352.22
2022-10-13T17:33:46.891Z,101356.69
2022-10-13T17:36:25.620Z,101352.38
2022-10-13T17:38:54.137Z,101353.38
2022-10-13T17:41:20.820Z,101346.31
2022-10-13T17:43:48.795Z,101347.31
2022-10-13T17:46:37.392Z,101355.91
2022-10-13T17:49:05.948Z,101357.75
2022-10-13T17:51:32.595Z,101357.75
2022-10-13T17:54:00.326Z,101363.84
2022-10-13T17:56:27.630Z,101351.72
2022-10-13T17:58:54.679Z,101359.53
2022-10-13T18:01:24.032Z,101359.53
2022-10-13T18:03:56.279Z,101359.53
2022-10-13T18:06:23.252Z,101364.69
2022-10-13T18:08:53.490Z,101363.91
2022-10-13T18:11:21.986Z,101363.91
2022-10-13T18:13:48.878Z,101369.97
2022-10-13T18:16:20.942Z,101371.66
2022-10-13T18:18:50.213Z,101364.84
2022-10-13T18:21:19.639Z,101364.00
2022-10-13T18:23:46.389Z,101370.91
2022-10-13T18:26:16.013Z,101373.50
2022-10-13T18:28:43.872Z,101375.28
2022-10-13T18:31:31.117Z,101365.69
2022-10-13T18:34:00.681Z,101370.91
2022-10-13T18:36:30.043Z,101368.28
2022-10-13T18:39:07.471Z,101375.19
2022-10-13T18:41:36.173Z,101376.97
2022-10-13T18:44:05.765Z,101379.63
2022-10-13T18:46:33.120Z,101380.56
2022-10-13T18:48:59.658Z,101375.34
2022-10-13T18:51:26.693Z,101378.03
2022-10-13T18:53:53.236Z,101369.34
2022-10-13T18:56:23.995Z,101370.13
2022-10-13T18:58:55.694Z,101372.81
2022-10-13T19:01:27.943Z,101375.34
2022-10-13T19:03:54.855Z,101376.25
2022-10-13T19:06:26.814Z,101373.66
2022-10-13T19:09:00.737Z,101378.88
2022-10-13T19:11:28.486Z,101385.00
2022-10-13T19:13:55.152Z,101385.78
2022-10-13T19:16:23.545Z,101382.41
2022-10-13T19:18:50.381Z,101383.28
2022-10-13T19:21:18.653Z,101380.63
2022-10-13T19:23:45.152Z,101385.00
2022-10-13T19:26:15.250Z,101379.81
2022-10-13T19:28:43.182Z,101384.19
2022-10-13T19:31:11.426Z,101391.25
2022-10-13T19:33:44.178Z,101383.44
2022-10-13T19:36:19.452Z,101381.81
2022-10-13T19:38:45.951Z,101382.59
2022-10-13T19:41:12.542Z,101390.41
2022-10-13T19:43:39.009Z,101387.78
2022-10-13T19:46:06.863Z,101396.47
2022-10-13T19:48:33.733Z,101390.41
2022-10-13T19:51:01.159Z,101392.94
2022-10-13T19:53:27.922Z,101393.72
2022-10-13T19:55:54.459Z,101397.25
2022-10-13T19:58:21.063Z,101393.84
2022-10-13T20:00:47.712Z,101389.56
2022-10-13T20:03:14.563Z,101394.00
2022-10-13T20:05:41.485Z,101391.41
2022-10-13T20:08:10.030Z,101391.41
2022-10-13T20:10:40.934Z,101394.84
2022-10-13T20:13:08.625Z,101399.22
2022-10-13T20:15:40.150Z,101392.34
2022-10-13T20:18:08.464Z,101390.59
2022-10-13T20:20:36.199Z,101395.81
2022-10-13T20:23:02.778Z,101401.88
2022-10-13T20:25:29.352Z,101392.34
2022-10-13T20:27:55.840Z,101397.63
2022-10-13T20:30:22.516Z,101401.94
2022-10-13T20:32:49.072Z,101400.25
2022-10-13T20:35:15.633Z,101399.47
2022-10-13T20:37:42.155Z,101396.88
2022-10-13T20:40:09.285Z,101404.69
2022-10-13T20:42:35.767Z,101403.03
2022-10-13T20:45:02.295Z,101407.34
2022-10-13T20:47:28.784Z,101410.09
2022-10-13T20:49:55.613Z,101416.28
2022-10-13T20:52:22.133Z,101407.66
2022-10-13T20:54:48.587Z,101413.88
2022-10-13T20:57:15.158Z,101412.16
2022-10-13T20:59:41.649Z,101412.16
2022-10-13T21:02:12.851Z,101415.69
2022-10-13T21:04:39.690Z,101408.78
2022-10-13T21:07:06.219Z,101417.56
2022-10-13T21:09:34.114Z,101414.19
2022-10-13T21:12:00.673Z,101409.88
2022-10-13T21:14:27.226Z,101401.25
2022-10-13T21:16:53.729Z,101411.69
2022-10-13T21:19:21.026Z,101412.66
2022-10-13T21:21:47.546Z,101407.53
2022-10-13T21:24:14.110Z,101411.81
2022-10-13T21:26:41.371Z,101413.66
2022-10-13T21:29:07.854Z,101409.28
2022-10-13T21:31:34.580Z,101410.97
2022-10-13T21:34:01.403Z,101412.75
2022-10-13T21:36:30.541Z,101414.59
2022-10-13T21:39:00.551Z,101416.38
2022-10-13T21:41:28.142Z,101409.34
2022-10-13T21:43:55.176Z,101418.13
2022-10-13T21:46:25.147Z,101412.84
2022-10-13T21:48:56.870Z,101414.69
2022-10-13T21:51:24.987Z,101413.75
2022-10-13T21:53:54.284Z,101415.59
2022-10-13T21:56:21.872Z,101411.22
2022-10-13T21:58:49.162Z,101415.59
2022-10-13T22:01:19.859Z,101421.72
2022-10-13T22:03:47.485Z,101417.41
2022-10-13T22:06:19.115Z,101419.03
2022-10-13T22:08:48.799Z,101417.28
2022-10-13T22:11:17.023Z,101413.75
2022-10-13T22:13:43.604Z,101411.75
2022-10-13T22:16:14.690Z,101409.63
2022-10-13T22:18:42.124Z,101410.41
2022-10-13T22:21:14.298Z,101406.88
2022-10-13T22:23:41.217Z,101407.81
2022-10-13T22:26:08.881Z,101406.88
2022-10-13T22:28:37.437Z,101405.88
2022-10-13T22:31:09.400Z,101404.94
2022-10-13T22:33:37.491Z,101398.97
2022-10-13T22:36:08.232Z,101401.75
2022-10-13T22:38:35.371Z,101401.00
2022-10-13T22:41:06.527Z,101404.59
2022-10-13T22:43:33.803Z,101402.06
2022-10-13T22:46:02.078Z,101397.75
2022-10-13T22:48:28.996Z,101399.63
2022-10-13T22:50:55.614Z,101392.66
2022-10-13T22:53:22.108Z,101388.38
2022-10-13T22:55:48.604Z,101393.56
2022-10-13T22:58:15.090Z,101391.88
2022-10-13T23:00:42.022Z,101392.81
2022-10-13T23:03:13.378Z,101399.78
2022-10-13T23:05:46.768Z,101391.97
2022-10-13T23:08:13.940Z,101384.19
2022-10-13T23:10:40.719Z,101384.97
2022-10-13T23:13:07.333Z,101384.13
2022-10-13T23:15:33.899Z,101385.84
2022-10-13T23:18:00.459Z,101384.06
2022-10-13T23:20:29.589Z,101378.84
2022-10-13T23:22:56.074Z,101378.00
2022-10-13T23:25:22.573Z,101376.31
2022-10-13T23:27:49.098Z,101377.22
2022-10-13T23:30:15.619Z,101375.47
2022-10-13T23:32:42.116Z,101362.47
2022-10-13T23:35:08.992Z,101362.47
2022-10-13T23:37:35.539Z,101359.03
2022-10-13T23:40:02.108Z,101357.25
2022-10-13T23:42:28.653Z,101350.44
2022-10-13T23:44:55.125Z,101353.03
2022-10-13T23:47:21.925Z,101351.22
2022-10-13T23:49:48.979Z,101350.28
2022-10-13T23:52:15.894Z,101356.44
2022-10-13T23:54:42.374Z,101354.63
2022-10-13T23:57:08.921Z,101344.97
2022-10-13T23:59:35.469Z,101352.78
